createdAt,value
2023-05-25T00:00:35.134Z,5.40
2023-05-25T00:03:03.905Z,5.80
2023-05-25T00:05:31.438Z,5.60
2023-05-25T00:07:58.353Z,9.40
2023-05-25T00:10:25.274Z,4.60
2023-05-25T00:12:52.184Z,6.20
2023-05-25T00:15:19.278Z,4.20
2023-05-25T00:17:49.192Z,5.50
2023-05-25T00:20:16.239Z,6.40
2023-05-25T00:22:45.303Z,5.80
2023-05-25T00:25:12.937Z,5.50
2023-05-25T00:27:39.853Z,4.60
2023-05-25T00:30:07.890Z,5.20
2023-05-25T00:32:35.133Z,4.30
2023-05-25T00:35:02.166Z,5.50
2023-05-25T00:37:29.170Z,5.20
2023-05-25T00:39:56.244Z,4.40
2023-05-25T00:42:23.887Z,4.80
2023-05-25T00:44:50.837Z,7.00
2023-05-25T00:47:18.006Z,5.70
2023-05-25T00:49:46.303Z,6.40
2023-05-25T00:52:13.333Z,5.30
2023-05-25T00:54:40.306Z,5.50
2023-05-25T00:57:08.234Z,6.00
2023-05-25T00:59:41.055Z,5.40
2023-05-25T01:02:08.929Z,5.30
2023-05-25T01:04:37.171Z,7.60
2023-05-25T01:07:08.910Z,5.60
2023-05-25T01:09:36.768Z,5.90
2023-05-25T01:12:04.252Z,6.20
2023-05-25T01:14:33.119Z,5.10
2023-05-25T01:17:00.987Z,4.80
2023-05-25T01:19:28.657Z,4.60
2023-05-25T01:22:00.208Z,5.10
2023-05-25T01:24:32.504Z,5.00
2023-05-25T01:27:15.049Z,5.20
2023-05-25T01:29:43.589Z,5.80
2023-05-25T01:32:11.612Z,6.00
2023-05-25T01:34:40.192Z,6.60
2023-05-25T01:37:07.437Z,5.60
2023-05-25T01:39:36.394Z,5.60
2023-05-25T01:42:03.493Z,6.40
2023-05-25T01:44:30.406Z,5.90
2023-05-25T01:47:06.148Z,3.80
2023-05-25T01:49:39.264Z,7.90
2023-05-25T01:52:18.534Z,7.30
2023-05-25T01:54:48.438Z,6.10
2023-05-25T01:57:17.965Z,4.20
2023-05-25T01:59:46.936Z,4.60
2023-05-25T02:02:15.301Z,5.10
2023-05-25T02:04:43.154Z,5.20
2023-05-25T02:07:10.318Z,6.60
2023-05-25T02:09:37.274Z,5.20
2023-05-25T02:12:04.528Z,5.10
2023-05-25T02:14:31.766Z,6.80
2023-05-25T02:17:02.397Z,5.80
2023-05-25T02:19:29.867Z,7.80
2023-05-25T02:21:56.893Z,6.10
2023-05-25T02:24:25.204Z,6.20
2023-05-25T02:26:53.288Z,6.80
2023-05-25T02:29:20.617Z,5.20
2023-05-25T02:31:47.782Z,7.30
2023-05-25T02:34:15.655Z,4.30
2023-05-25T02:36:43.928Z,5.70
2023-05-25T02:39:11.365Z,4.60
2023-05-25T02:41:38.514Z,4.90
2023-05-25T02:44:07.203Z,6.10
2023-05-25T02:46:34.558Z,5.00
2023-05-25T02:49:01.719Z,5.10
2023-05-25T02:51:29.342Z,5.40
2023-05-25T02:53:57.754Z,5.00
2023-05-25T02:56:24.739Z,6.30
2023-05-25T02:58:51.740Z,6.40
2023-05-25T03:01:30.961Z,4.90
2023-05-25T03:03:58.265Z,5.20
2023-05-25T03:06:26.506Z,4.90
2023-05-25T03:09:08.961Z,5.40
2023-05-25T03:11:36.584Z,4.80
2023-05-25T03:14:03.897Z,4.80
2023-05-25T03:16:31.985Z,5.40
2023-05-25T03:18:58.927Z,5.30
2023-05-25T03:21:25.911Z,7.30
2023-05-25T03:23:53.881Z,8.60
2023-05-25T03:26:20.832Z,5.70
2023-05-25T03:28:48.586Z,5.60
2023-05-25T03:31:15.472Z,5.60
2023-05-25T03:33:42.438Z,7.30
2023-05-25T03:36:10.225Z,6.10
2023-05-25T03:38:37.166Z,4.80
2023-05-25T03:41:04.528Z,6.70
2023-05-25T03:43:31.993Z,7.00
2023-05-25T03:45:59.049Z,5.70
2023-05-25T03:48:26.024Z,5.00
2023-05-25T03:50:53.748Z,5.10
2023-05-25T03:53:21.979Z,5.70
2023-05-25T03:55:52.533Z,6.00
2023-05-25T03:58:19.748Z,6.50
2023-05-25T04:00:49.178Z,6.00
2023-05-25T04:03:16.457Z,7.30
2023-05-25T04:05:46.032Z,5.50
2023-05-25T04:08:19.924Z,5.50
2023-05-25T04:10:46.931Z,5.20
2023-05-25T04:13:14.204Z,4.80
2023-05-25T04:15:41.353Z,6.30
2023-05-25T04:18:20.982Z,5.30
2023-05-25T04:20:48.981Z,7.10
2023-05-25T04:23:17.760Z,6.30
2023-05-25T04:25:45.897Z,7.30
2023-05-25T04:28:14.200Z,6.30
2023-05-25T04:31:08.305Z,7.30
2023-05-25T04:33:41.897Z,7.00
2023-05-25T04:36:18.720Z,7.70
2023-05-25T04:38:48.160Z,5.10
2023-05-25T04:41:15.646Z,5.10
2023-05-25T04:44:03.596Z,5.00
2023-05-25T04:46:37.801Z,5.10
2023-05-25T04:49:08.761Z,6.40
2023-05-25T04:51:37.293Z,6.30
2023-05-25T04:54:04.289Z,4.60
2023-05-25T04:56:32.141Z,6.10
2023-05-25T04:58:59.144Z,4.90
2023-05-25T05:01:26.789Z,7.50
2023-05-25T05:03:57.316Z,5.10
2023-05-25T05:06:26.116Z,7.00
2023-05-25T05:08:53.198Z,6.00
2023-05-25T05:11:20.636Z,5.10
2023-05-25T05:13:47.742Z,7.90
2023-05-25T05:16:14.817Z,7.80
2023-05-25T05:18:42.413Z,6.00
2023-05-25T05:21:09.397Z,6.20
2023-05-25T05:23:36.647Z,12.30
2023-05-25T05:26:05.356Z,6.00
2023-05-25T05:28:32.330Z,7.00
2023-05-25T05:30:59.342Z,6.00
2023-05-25T05:33:26.479Z,6.90
2023-05-25T05:35:53.624Z,6.60
2023-05-25T05:38:22.277Z,8.90
2023-05-25T05:40:49.258Z,6.00
2023-05-25T05:43:21.223Z,6.00
2023-05-25T05:45:48.182Z,7.90
2023-05-25T05:48:15.196Z,8.40
2023-05-25T05:50:42.550Z,8.30
2023-05-25T05:53:11.257Z,7.20
2023-05-25T05:55:38.290Z,5.80
2023-05-25T05:58:05.605Z,10.20
2023-05-25T06:00:32.526Z,7.20
2023-05-25T06:03:01.148Z,6.10
2023-05-25T06:05:29.632Z,6.60
2023-05-25T06:07:58.464Z,7.50
2023-05-25T06:10:25.661Z,7.80
2023-05-25T06:12:53.696Z,8.70
2023-05-25T06:15:21.639Z,5.30
2023-05-25T06:17:49.835Z,11.80
2023-05-25T06:20:17.249Z,6.70
2023-05-25T06:22:45.324Z,5.90
2023-05-25T06:25:12.337Z,8.30
2023-05-25T06:27:39.389Z,9.10
2023-05-25T06:30:07.061Z,5.20
2023-05-25T06:32:35.557Z,7.80
2023-05-25T06:35:03.568Z,6.50
2023-05-25T06:37:35.553Z,6.90
2023-05-25T06:40:03.131Z,5.50
2023-05-25T06:42:30.110Z,17.50
2023-05-25T06:44:57.342Z,8.50
2023-05-25T06:47:36.112Z,6.50
2023-05-25T06:50:03.715Z,8.30
2023-05-25T06:52:30.670Z,8.40
2023-05-25T06:54:57.626Z,5.60
2023-05-25T06:57:24.594Z,6.00
2023-05-25T06:59:51.614Z,6.50
2023-05-25T07:02:19.925Z,10.60
2023-05-25T07:04:47.394Z,7.70
2023-05-25T07:07:14.619Z,8.20
2023-05-25T07:09:41.879Z,5.80
2023-05-25T07:12:10.425Z,4.80
2023-05-25T07:14:38.030Z,7.10
2023-05-25T07:17:05.066Z,8.80
2023-05-25T07:19:32.014Z,6.10
2023-05-25T07:21:58.930Z,5.40
2023-05-25T07:24:25.897Z,6.20
2023-05-25T07:26:52.897Z,7.20
2023-05-25T07:29:19.796Z,5.80
2023-05-25T07:31:46.841Z,5.60
2023-05-25T07:34:13.788Z,7.30
2023-05-25T07:36:40.869Z,5.00
2023-05-25T07:39:13.421Z,7.00
2023-05-25T07:41:40.328Z,5.30
2023-05-25T07:44:07.225Z,5.70
2023-05-25T07:46:34.272Z,5.90
2023-05-25T07:49:03.556Z,6.30
2023-05-25T07:51:33.192Z,7.00
2023-05-25T07:54:00.232Z,7.50
2023-05-25T07:56:28.877Z,7.50
2023-05-25T07:58:55.917Z,6.40
2023-05-25T08:01:25.582Z,7.30
2023-05-25T08:03:54.275Z,6.00
2023-05-25T08:06:21.636Z,7.10
2023-05-25T08:08:50.301Z,7.80
2023-05-25T08:11:17.278Z,6.30
2023-05-25T08:13:44.242Z,5.40
2023-05-25T08:16:11.272Z,7.40
2023-05-25T08:18:38.167Z,6.50
2023-05-25T08:21:05.167Z,5.30
2023-05-25T08:23:32.098Z,6.80
2023-05-25T08:25:58.990Z,6.40
2023-05-25T08:28:27.704Z,5.70
2023-05-25T08:30:55.417Z,7.30
2023-05-25T08:33:25.154Z,7.80
2023-05-25T08:35:53.529Z,7.10
2023-05-25T08:38:25.322Z,5.70
2023-05-25T08:41:06.268Z,6.00
2023-05-25T08:43:33.981Z,6.40
2023-05-25T08:46:07.100Z,8.30
2023-05-25T08:48:42.363Z,6.20
2023-05-25T08:51:11.919Z,6.30
2023-05-25T08:53:41.195Z,6.50
2023-05-25T08:56:14.467Z,7.00
2023-05-25T08:58:45.694Z,6.80
2023-05-25T09:01:14.369Z,7.00
2023-05-25T09:03:41.685Z,5.60
2023-05-25T09:06:09.097Z,6.10
2023-05-25T09:08:37.754Z,7.10
2023-05-25T09:11:05.393Z,7.10
2023-05-25T09:13:32.405Z,7.20
2023-05-25T09:15:59.379Z,5.50
2023-05-25T09:18:26.389Z,6.80
2023-05-25T09:20:55.685Z,7.70
2023-05-25T09:23:22.952Z,9.50
2023-05-25T09:25:51.395Z,5.80
2023-05-25T09:30:51.652Z,8.60
2023-05-25T09:33:18.842Z,6.80
2023-05-25T09:35:46.817Z,7.20
2023-05-25T09:38:17.456Z,5.80
2023-05-25T09:40:45.114Z,5.80
2023-05-25T09:43:19.705Z,5.20
2023-05-25T09:45:55.938Z,7.00
2023-05-25T09:48:24.581Z,6.10
2023-05-25T09:50:52.205Z,6.30
2023-05-25T09:53:21.496Z,6.20
2023-05-25T09:55:53.313Z,5.90
2023-05-25T09:58:27.170Z,5.80
2023-05-25T10:00:55.162Z,5.60
2023-05-25T10:03:22.135Z,5.40
2023-05-25T10:05:49.591Z,7.20
2023-05-25T10:08:18.330Z,6.00
2023-05-25T10:10:46.641Z,6.00
2023-05-25T10:13:15.098Z,5.50
2023-05-25T10:15:44.361Z,6.10
2023-05-25T10:18:12.416Z,6.00
2023-05-25T10:20:39.979Z,5.90
2023-05-25T10:23:17.838Z,11.00
2023-05-25T10:25:46.283Z,7.50
2023-05-25T10:28:29.720Z,7.60
2023-05-25T10:30:58.401Z,5.00
2023-05-25T10:33:25.505Z,6.30
2023-05-25T10:36:02.946Z,5.90
2023-05-25T10:38:39.570Z,5.30
2023-05-25T10:41:09.120Z,5.80
2023-05-25T10:43:36.558Z,6.40
2023-05-25T10:46:04.797Z,5.40
2023-05-25T10:48:38.707Z,7.60
2023-05-25T10:51:08.834Z,7.40
2023-05-25T10:53:37.190Z,6.30
2023-05-25T10:56:05.147Z,7.00
2023-05-25T10:58:32.987Z,7.20
2023-05-25T11:01:01.365Z,4.90
2023-05-25T11:03:44.084Z,7.30
2023-05-25T11:06:11.712Z,7.80
2023-05-25T11:08:55.825Z,6.10
2023-05-25T11:11:41.701Z,6.30
2023-05-25T11:14:28.078Z,6.50
2023-05-25T11:17:16.702Z,5.60
2023-05-25T11:19:52.348Z,5.10
2023-05-25T11:22:23.691Z,7.20
2023-05-25T11:24:51.367Z,6.50
2023-05-25T11:27:25.847Z,7.30
2023-05-25T11:29:53.346Z,8.10
2023-05-25T11:32:21.435Z,6.10
2023-05-25T11:34:48.662Z,6.80
2023-05-25T11:37:22.841Z,7.00
2023-05-25T11:39:51.895Z,5.00
2023-05-25T11:42:20.349Z,9.40
2023-05-25T11:44:47.480Z,6.10
2023-05-25T11:47:14.921Z,4.80
2023-05-25T11:49:42.568Z,6.70
2023-05-25T11:52:10.592Z,5.60
2023-05-25T11:54:41.198Z,6.80
2023-05-25T11:57:18.661Z,4.80
2023-05-25T11:59:50.391Z,9.80
2023-05-25T12:02:17.840Z,6.10
2023-05-25T12:04:58.749Z,6.50
2023-05-25T12:07:26.545Z,5.70
2023-05-25T12:10:04.847Z,8.00
2023-05-25T12:12:37.720Z,5.50
2023-05-25T12:15:04.894Z,6.80
2023-05-25T12:17:32.943Z,7.30
2023-05-25T12:20:00.366Z,5.70
2023-05-25T12:22:27.608Z,5.50
2023-05-25T12:24:54.502Z,7.70
2023-05-25T12:27:22.945Z,5.30
2023-05-25T12:29:49.996Z,5.80
2023-05-25T12:32:16.990Z,7.00
2023-05-25T12:34:43.885Z,5.20
2023-05-25T12:37:21.159Z,6.00
2023-05-25T12:39:48.828Z,8.50
2023-05-25T12:42:16.420Z,5.10
2023-05-25T12:44:44.621Z,4.90
2023-05-25T12:47:23.726Z,6.50
2023-05-25T12:49:52.233Z,5.20
2023-05-25T12:52:32.988Z,5.20
2023-05-25T12:55:01.258Z,9.40
2023-05-25T12:57:35.409Z,5.10
2023-05-25T13:00:02.342Z,6.90
2023-05-25T13:02:29.710Z,5.10
2023-05-25T13:04:56.778Z,5.50
2023-05-25T13:07:23.845Z,6.10
2023-05-25T13:09:50.756Z,5.00
2023-05-25T13:12:18.336Z,6.20
2023-05-25T13:14:46.123Z,6.70
2023-05-25T13:17:13.964Z,6.10
2023-05-25T13:19:41.111Z,6.50
2023-05-25T13:22:08.044Z,6.20
2023-05-25T13:24:34.911Z,8.30
2023-05-25T13:27:01.810Z,7.70
2023-05-25T13:29:28.683Z,5.60
2023-05-25T13:31:55.740Z,6.80
2023-05-25T13:34:22.669Z,5.80
2023-05-25T13:36:49.684Z,6.70
2023-05-25T13:39:16.571Z,5.00
2023-05-25T13:41:43.951Z,8.00
2023-05-25T13:44:14.069Z,6.50
2023-05-25T13:46:42.403Z,5.10
2023-05-25T13:49:09.776Z,5.60
2023-05-25T13:51:38.494Z,6.50
2023-05-25T13:54:05.418Z,5.90
2023-05-25T13:56:32.567Z,7.80
2023-05-25T13:58:59.517Z,5.80
2023-05-25T14:01:30.693Z,5.70
2023-05-25T14:04:00.020Z,7.20
2023-05-25T14:06:27.336Z,5.50
2023-05-25T14:08:54.365Z,4.90
2023-05-25T14:11:27.866Z,5.50
2023-05-25T14:13:55.611Z,8.80
2023-05-25T14:16:22.810Z,5.30
2023-05-25T14:18:49.877Z,4.80
2023-05-25T14:21:16.878Z,6.30
2023-05-25T14:23:43.996Z,5.00
2023-05-25T14:26:11.010Z,5.90
2023-05-25T14:28:37.889Z,6.50
2023-05-25T14:31:04.954Z,6.70
2023-05-25T14:33:31.891Z,6.00
2023-05-25T14:35:58.799Z,5.90
2023-05-25T14:38:25.759Z,7.60
2023-05-25T14:40:52.633Z,5.90
2023-05-25T14:43:19.581Z,8.10
2023-05-25T14:45:46.898Z,5.90
2023-05-25T14:48:16.410Z,8.20
2023-05-25T14:50:44.784Z,5.00
2023-05-25T14:53:12.088Z,4.90
2023-05-25T14:55:39.123Z,5.90
2023-05-25T14:58:06.083Z,6.70
2023-05-25T15:00:33.101Z,5.60
2023-05-25T15:03:00.192Z,7.50
2023-05-25T15:05:27.265Z,6.80
2023-05-25T15:07:54.164Z,5.00
2023-05-25T15:10:21.125Z,6.10
2023-05-25T15:12:48.053Z,5.70
2023-05-25T15:15:15.561Z,5.60
2023-05-25T15:17:42.518Z,6.70
2023-05-25T15:20:10.205Z,5.40
2023-05-25T15:22:37.221Z,5.10
2023-05-25T15:25:04.941Z,6.60
2023-05-25T15:27:32.412Z,7.10
2023-05-25T15:30:00.398Z,6.90
2023-05-25T15:32:27.685Z,8.80
2023-05-25T15:34:54.696Z,5.40
2023-05-25T15:37:21.689Z,7.30
2023-05-25T15:39:48.798Z,7.10
2023-05-25T15:42:16.040Z,6.70
2023-05-25T15:44:42.990Z,6.60
2023-05-25T15:47:09.872Z,6.40
2023-05-25T15:49:37.318Z,7.50
2023-05-25T15:52:05.040Z,6.90
2023-05-25T15:54:32.089Z,5.80
2023-05-25T15:56:59.339Z,5.20
2023-05-25T15:59:26.275Z,6.60
2023-05-25T16:01:53.463Z,5.40
2023-05-25T16:04:20.555Z,5.30
2023-05-25T16:06:48.892Z,7.40
2023-05-25T16:09:16.449Z,5.30
2023-05-25T16:11:43.442Z,6.20
2023-05-25T16:14:10.377Z,5.70
2023-05-25T16:16:37.421Z,8.70
2023-05-25T16:19:04.677Z,6.10
2023-05-25T16:21:37.089Z,5.50
2023-05-25T16:24:05.015Z,4.60
2023-05-25T16:26:32.105Z,6.60
2023-05-25T16:28:59.150Z,5.70
2023-05-25T16:31:26.092Z,7.00
2023-05-25T16:33:53.106Z,5.30
2023-05-25T16:36:20.092Z,5.80
2023-05-25T16:38:47.050Z,5.10
2023-05-25T16:41:13.958Z,6.30
2023-05-25T16:43:41.124Z,5.10
2023-05-25T16:46:08.126Z,5.20
2023-05-25T16:48:35.348Z,5.20
2023-05-25T16:51:02.413Z,6.20
2023-05-25T16:53:29.464Z,5.70
2023-05-25T16:55:56.488Z,4.30
2023-05-25T16:58:24.410Z,5.90
2023-05-25T17:00:51.429Z,6.30
2023-05-25T17:03:18.512Z,5.90
2023-05-25T17:05:47.864Z,5.70
2023-05-25T17:08:14.727Z,5.90
2023-05-25T17:10:43.012Z,6.30
2023-05-25T17:13:10.004Z,5.40
2023-05-25T17:15:36.991Z,6.40
2023-05-25T17:18:03.960Z,4.90
2023-05-25T17:20:31.008Z,6.60
2023-05-25T17:22:57.994Z,5.80
2023-05-25T17:25:24.911Z,5.70
2023-05-25T17:27:51.940Z,5.60
2023-05-25T17:30:18.918Z,6.40
2023-05-25T17:32:46.094Z,7.60
2023-05-25T17:35:13.191Z,6.50
2023-05-25T17:37:40.095Z,6.20
2023-05-25T17:40:07.417Z,5.80
2023-05-25T17:42:34.400Z,6.30
2023-05-25T17:45:01.349Z,5.30
2023-05-25T17:47:28.509Z,5.70
2023-05-25T17:49:56.265Z,6.70
2023-05-25T17:52:23.209Z,5.60
2023-05-25T17:54:50.051Z,5.80
2023-05-25T17:57:17.923Z,8.50
2023-05-25T17:59:45.861Z,5.90
2023-05-25T18:02:13.617Z,6.40
2023-05-25T18:04:40.953Z,6.70
2023-05-25T18:07:08.232Z,7.00
2023-05-25T18:09:35.193Z,7.00
2023-05-25T18:12:02.234Z,8.10
2023-05-25T18:14:32.420Z,6.80
2023-05-25T18:16:59.625Z,7.30
2023-05-25T18:19:26.597Z,6.50
2023-05-25T18:21:53.462Z,6.60
2023-05-25T18:24:20.610Z,28.90
2023-05-25T18:26:47.545Z,7.40
2023-05-25T18:29:14.466Z,12.50
2023-05-25T18:31:45.885Z,7.20
2023-05-25T18:34:13.325Z,8.50
2023-05-25T18:36:40.313Z,7.90
2023-05-25T18:39:07.279Z,13.30
2023-05-25T18:41:34.340Z,7.70
2023-05-25T18:44:01.281Z,9.60
2023-05-25T18:46:29.245Z,7.10
2023-05-25T18:48:56.957Z,11.10
2023-05-25T18:51:25.998Z,8.80
2023-05-25T18:53:53.620Z,13.20
2023-05-25T18:56:20.663Z,13.90
2023-05-25T18:58:48.791Z,11.10
2023-05-25T19:01:17.324Z,12.90
2023-05-25T19:03:44.663Z,14.30
2023-05-25T19:06:11.613Z,7.90
2023-05-25T19:08:38.628Z,11.90
2023-05-25T19:11:06.056Z,8.70
2023-05-25T19:13:32.953Z,8.80
2023-05-25T19:16:01.395Z,8.60
2023-05-25T19:18:28.597Z,9.60
2023-05-25T19:20:55.613Z,8.50
2023-05-25T19:23:22.574Z,8.90
2023-05-25T19:25:49.757Z,8.10
2023-05-25T19:28:16.708Z,10.50
2023-05-25T19:30:43.631Z,8.00
2023-05-25T19:33:11.303Z,9.60
2023-05-25T19:35:39.367Z,12.60
2023-05-25T19:38:06.283Z,7.80
2023-05-25T19:40:33.424Z,8.80
2023-05-25T19:43:00.325Z,7.70
2023-05-25T19:45:27.385Z,9.30
2023-05-25T19:47:55.040Z,9.40
2023-05-25T19:50:22.214Z,10.90
2023-05-25T19:52:49.147Z,9.50
2023-05-25T19:55:16.109Z,8.20
2023-05-25T19:57:43.123Z,8.20
2023-05-25T20:00:28.883Z,7.80
2023-05-25T20:02:55.998Z,7.90
2023-05-25T20:05:23.342Z,6.90
2023-05-25T20:07:52.792Z,7.90
2023-05-25T20:10:22.040Z,9.90
2023-05-25T20:12:49.100Z,7.10
2023-05-25T20:15:16.901Z,7.90
2023-05-25T20:17:43.888Z,8.40
2023-05-25T20:20:11.203Z,10.30
2023-05-25T20:22:38.259Z,13.20
2023-05-25T20:25:05.713Z,13.20
2023-05-25T20:27:32.682Z,13.80
2023-05-25T20:29:59.672Z,15.50
2023-05-25T20:32:26.637Z,13.00
2023-05-25T20:34:53.643Z,14.00
2023-05-25T20:37:20.547Z,11.60
2023-05-25T20:39:47.512Z,11.40
2023-05-25T20:42:14.495Z,14.80
2023-05-25T20:44:41.775Z,20.00
2023-05-25T20:47:08.790Z,17.40
2023-05-25T20:49:35.961Z,20.20
2023-05-25T20:52:03.192Z,25.10
2023-05-25T20:54:30.314Z,23.90
2023-05-25T20:56:57.277Z,24.10
2023-05-25T20:59:24.330Z,22.40
2023-05-25T21:01:51.318Z,25.20
2023-05-25T21:04:18.283Z,20.60
2023-05-25T21:06:45.742Z,23.30
2023-05-25T21:09:13.150Z,25.70
2023-05-25T21:11:40.193Z,21.40
2023-05-25T21:14:07.501Z,19.50
2023-05-25T21:16:35.024Z,17.80
2023-05-25T21:19:02.109Z,17.80
2023-05-25T21:21:29.469Z,16.80
2023-05-25T21:23:56.478Z,11.70
2023-05-25T21:26:23.466Z,13.10
2023-05-25T21:28:50.397Z,12.20
2023-05-25T21:31:17.386Z,11.60
2023-05-25T21:33:46.087Z,10.40
2023-05-25T21:36:13.492Z,12.60
2023-05-25T21:38:40.472Z,10.40
2023-05-25T21:41:07.610Z,12.90
2023-05-25T21:43:34.615Z,10.80
2023-05-25T21:46:03.344Z,11.30
2023-05-25T21:48:30.568Z,9.90
2023-05-25T21:50:57.762Z,9.40
2023-05-25T21:53:24.723Z,13.00
2023-05-25T21:55:53.234Z,9.70
2023-05-25T21:58:20.483Z,11.20
2023-05-25T22:00:47.558Z,9.30
2023-05-25T22:03:15.018Z,12.30
2023-05-25T22:05:42.942Z,9.50
2023-05-25T22:08:10.246Z,9.50
2023-05-25T22:10:38.749Z,8.30
2023-05-25T22:13:05.666Z,10.80
2023-05-25T22:15:32.920Z,8.00
2023-05-25T22:18:00.579Z,8.90
2023-05-25T22:20:28.424Z,6.60
2023-05-25T22:22:55.470Z,9.40
2023-05-25T22:25:22.428Z,10.90
2023-05-25T22:27:49.353Z,10.30
2023-05-25T22:30:16.371Z,10.00
2023-05-25T22:32:43.536Z,9.10
2023-05-25T22:35:10.737Z,8.10
2023-05-25T22:37:37.892Z,9.10
2023-05-25T22:40:06.028Z,8.40
2023-05-25T22:42:33.087Z,9.80
2023-05-25T22:45:00.032Z,7.10
2023-05-25T22:47:27.139Z,7.30
2023-05-25T22:49:54.233Z,6.80
2023-05-25T22:52:21.120Z,8.80
2023-05-25T22:54:48.049Z,8.10
2023-05-25T22:57:15.544Z,8.40
2023-05-25T22:59:42.485Z,8.20
2023-05-25T23:02:09.512Z,9.50
2023-05-25T23:04:36.680Z,8.40
2023-05-25T23:07:03.740Z,9.30
2023-05-25T23:09:30.744Z,9.20
2023-05-25T23:11:57.692Z,9.50
2023-05-25T23:14:26.331Z,9.30
2023-05-25T23:16:53.489Z,9.90
2023-05-25T23:19:20.532Z,9.70
2023-05-25T23:21:48.479Z,11.50
2023-05-25T23:24:15.699Z,9.00
2023-05-25T23:26:42.645Z,11.80
2023-05-25T23:29:09.617Z,9.10
2023-05-25T23:31:37.009Z,7.80
2023-05-25T23:34:04.207Z,7.90
2023-05-25T23:36:31.740Z,7.90
2023-05-25T23:38:58.779Z,8.80
2023-05-25T23:41:26.620Z,8.70
2023-05-25T23:43:53.565Z,8.40
2023-05-25T23:46:20.773Z,9.00
2023-05-25T23:48:47.817Z,8.10
2023-05-25T23:51:14.778Z,8.80
2023-05-25T23:53:41.703Z,9.20
2023-05-25T23:56:08.735Z,9.00
2023-05-25T23:58:35.861Z,8.40
